sensor_id;sensor_type;location;lat;lon;timestamp;P1;durP1;ratioP1;P2;durP2;ratioP2
38513;SDS011;24282;48.400;10.808;2023-09-19T00:00:42;3.33;;;1.23;;
38513;SDS011;24282;48.400;10.808;2023-09-19T00:03:09;1.90;;;1.10;;
38513;SDS011;24282;48.400;10.808;2023-09-19T00:05:37;2.05;;;1.10;;
38513;SDS011;24282;48.400;10.808;2023-09-19T00:08:03;1.73;;;1.17;;
38513;SDS011;24282;48.400;10.808;2023-09-19T00:10:30;2.83;;;1.50;;
38513;SDS011;24282;48.400;10.808;2023-09-19T00:13:00;1.27;;;0.95;;
38513;SDS011;24282;48.400;10.808;2023-09-19T00:18:06;3.45;;;1.00;;
38513;SDS011;24282;48.400;10.808;2023-09-19T00:20:32;2.03;;;1.10;;
38513;SDS011;24282;48.400;10.808;2023-09-19T00:23:00;2.65;;;0.93;;
38513;SDS011;24282;48.400;10.808;2023-09-19T00:25:37;2.75;;;1.10;;
38513;SDS011;24282;48.400;10.808;2023-09-19T00:28:03;2.58;;;1.17;;
38513;SDS011;24282;48.400;10.808;2023-09-19T00:30:33;2.95;;;1.55;;
38513;SDS011;24282;48.400;10.808;2023-09-19T00:32:59;2.30;;;1.13;;
38513;SDS011;24282;48.400;10.808;2023-09-19T00:35:26;2.78;;;1.30;;
38513;SDS011;24282;48.400;10.808;2023-09-19T00:37:52;2.60;;;1.00;;
38513;SDS011;24282;48.400;10.808;2023-09-19T00:40:19;2.70;;;1.40;;
38513;SDS011;24282;48.400;10.808;2023-09-19T00:42:46;1.83;;;1.15;;
38513;SDS011;24282;48.400;10.808;2023-09-19T00:45:14;2.35;;;1.10;;
38513;SDS011;24282;48.400;10.808;2023-09-19T00:47:46;5.00;;;1.60;;
38513;SDS011;24282;48.400;10.808;2023-09-19T00:50:17;3.13;;;1.63;;
38513;SDS011;24282;48.400;10.808;2023-09-19T00:52:48;4.15;;;1.67;;
38513;SDS011;24282;48.400;10.808;2023-09-19T00:55:16;3.38;;;1.38;;
38513;SDS011;24282;48.400;10.808;2023-09-19T00:57:45;2.35;;;1.00;;
38513;SDS011;24282;48.400;10.808;2023-09-19T01:00:12;1.30;;;1.10;;
38513;SDS011;24282;48.400;10.808;2023-09-19T01:02:41;3.58;;;1.40;;
38513;SDS011;24282;48.400;10.808;2023-09-19T01:05:08;2.47;;;1.50;;
38513;SDS011;24282;48.400;10.808;2023-09-19T01:07:35;2.17;;;1.40;;
38513;SDS011;24282;48.400;10.808;2023-09-19T01:10:05;3.45;;;1.20;;
38513;SDS011;24282;48.400;10.808;2023-09-19T01:29:13;4.75;;;1.20;;
38513;SDS011;24282;48.400;10.808;2023-09-19T01:32:05;2.78;;;1.20;;
38513;SDS011;24282;48.400;10.808;2023-09-19T01:37:19;2.30;;;1.27;;
38513;SDS011;24282;48.400;10.808;2023-09-19T01:39:52;2.85;;;1.40;;
38513;SDS011;24282;48.400;10.808;2023-09-19T01:47:48;3.20;;;1.10;;
38513;SDS011;24282;48.400;10.808;2023-09-19T01:50:26;3.97;;;1.65;;
38513;SDS011;24282;48.400;10.808;2023-09-19T01:52:57;2.17;;;1.20;;
38513;SDS011;24282;48.400;10.808;2023-09-19T01:55:29;2.33;;;1.58;;
38513;SDS011;24282;48.400;10.808;2023-09-19T01:58:05;1.85;;;1.30;;
38513;SDS011;24282;48.400;10.808;2023-09-19T02:00:34;1.73;;;1.20;;
38513;SDS011;24282;48.400;10.808;2023-09-19T02:03:02;3.10;;;1.25;;
38513;SDS011;24282;48.400;10.808;2023-09-19T02:05:29;2.88;;;1.52;;
38513;SDS011;24282;48.400;10.808;2023-09-19T02:07:55;1.98;;;1.40;;
38513;SDS011;24282;48.400;10.808;2023-09-19T02:10:22;1.85;;;1.27;;
38513;SDS011;24282;48.400;10.808;2023-09-19T02:12:48;3.67;;;1.42;;
38513;SDS011;24282;48.400;10.808;2023-09-19T02:15:15;1.75;;;1.10;;
38513;SDS011;24282;48.400;10.808;2023-09-19T02:17:44;2.13;;;1.40;;
38513;SDS011;24282;48.400;10.808;2023-09-19T02:20:11;3.33;;;1.48;;
38513;SDS011;24282;48.400;10.808;2023-09-19T02:22:38;3.13;;;1.25;;
38513;SDS011;24282;48.400;10.808;2023-09-19T02:25:04;2.40;;;0.95;;
38513;SDS011;24282;48.400;10.808;2023-09-19T02:27:30;1.38;;;1.20;;
38513;SDS011;24282;48.400;10.808;2023-09-19T02:29:57;2.63;;;1.30;;
38513;SDS011;24282;48.400;10.808;2023-09-19T02:32:23;1.75;;;1.10;;
38513;SDS011;24282;48.400;10.808;2023-09-19T02:34:48;3.08;;;1.40;;
38513;SDS011;24282;48.400;10.808;2023-09-19T02:37:17;2.90;;;1.45;;
38513;SDS011;24282;48.400;10.808;2023-09-19T02:39:44;2.38;;;1.23;;
38513;SDS011;24282;48.400;10.808;2023-09-19T02:42:11;4.05;;;1.30;;
38513;SDS011;24282;48.400;10.808;2023-09-19T02:44:37;1.98;;;1.20;;
38513;SDS011;24282;48.400;10.808;2023-09-19T02:47:03;3.67;;;1.25;;
38513;SDS011;24282;48.400;10.808;2023-09-19T02:49:29;2.53;;;1.35;;
38513;SDS011;24282;48.400;10.808;2023-09-19T02:51:55;2.90;;;1.40;;
38513;SDS011;24282;48.400;10.808;2023-09-19T02:54:21;2.40;;;1.58;;
38513;SDS011;24282;48.400;10.808;2023-09-19T02:56:47;2.08;;;1.45;;
38513;SDS011;24282;48.400;10.808;2023-09-19T02:59:13;6.38;;;1.77;;
38513;SDS011;24282;48.400;10.808;2023-09-19T03:01:39;3.70;;;1.60;;
38513;SDS011;24282;48.400;10.808;2023-09-19T03:04:10;2.50;;;1.27;;
38513;SDS011;24282;48.400;10.808;2023-09-19T03:06:37;5.90;;;1.33;;
38513;SDS011;24282;48.400;10.808;2023-09-19T03:09:04;2.05;;;1.05;;
38513;SDS011;24282;48.400;10.808;2023-09-19T03:11:37;3.15;;;1.38;;
38513;SDS011;24282;48.400;10.808;2023-09-19T03:14:07;2.45;;;1.60;;
38513;SDS011;24282;48.400;10.808;2023-09-19T03:16:35;2.33;;;1.58;;
38513;SDS011;24282;48.400;10.808;2023-09-19T03:19:02;2.58;;;1.17;;
38513;SDS011;24282;48.400;10.808;2023-09-19T03:21:30;4.32;;;1.25;;
38513;SDS011;24282;48.400;10.808;2023-09-19T03:23:56;1.85;;;1.33;;
38513;SDS011;24282;48.400;10.808;2023-09-19T03:26:21;2.13;;;1.20;;
38513;SDS011;24282;48.400;10.808;2023-09-19T03:28:47;3.13;;;1.13;;
38513;SDS011;24282;48.400;10.808;2023-09-19T03:31:13;1.88;;;1.27;;
38513;SDS011;24282;48.400;10.808;2023-09-19T03:33:39;1.75;;;1.10;;
38513;SDS011;24282;48.400;10.808;2023-09-19T03:36:05;2.17;;;1.40;;
38513;SDS011;24282;48.400;10.808;2023-09-19T03:38:31;1.73;;;1.25;;
38513;SDS011;24282;48.400;10.808;2023-09-19T03:40:59;2.88;;;1.50;;
38513;SDS011;24282;48.400;10.808;2023-09-19T03:43:26;1.83;;;1.20;;
38513;SDS011;24282;48.400;10.808;2023-09-19T03:45:53;3.05;;;1.33;;
38513;SDS011;24282;48.400;10.808;2023-09-19T03:48:21;2.22;;;1.40;;
38513;SDS011;24282;48.400;10.808;2023-09-19T03:50:48;1.40;;;0.80;;
38513;SDS011;24282;48.400;10.808;2023-09-19T03:53:15;3.20;;;1.30;;
38513;SDS011;24282;48.400;10.808;2023-09-19T03:55:40;3.67;;;1.30;;
38513;SDS011;24282;48.400;10.808;2023-09-19T03:58:07;2.78;;;1.08;;
38513;SDS011;24282;48.400;10.808;2023-09-19T04:00:32;2.95;;;1.20;;
38513;SDS011;24282;48.400;10.808;2023-09-19T04:02:59;3.60;;;1.05;;
38513;SDS011;24282;48.400;10.808;2023-09-19T04:05:27;2.92;;;1.40;;
38513;SDS011;24282;48.400;10.808;2023-09-19T04:07:53;6.28;;;1.80;;
38513;SDS011;24282;48.400;10.808;2023-09-19T04:10:19;4.60;;;2.75;;
38513;SDS011;24282;48.400;10.808;2023-09-19T04:12:55;4.75;;;3.17;;
38513;SDS011;24282;48.400;10.808;2023-09-19T04:15:22;2.83;;;1.88;;
38513;SDS011;24282;48.400;10.808;2023-09-19T04:17:49;2.47;;;1.38;;
38513;SDS011;24282;48.400;10.808;2023-09-19T04:20:16;5.22;;;1.50;;
38513;SDS011;24282;48.400;10.808;2023-09-19T04:22:43;3.47;;;1.60;;
38513;SDS011;24282;48.400;10.808;2023-09-19T04:25:08;3.47;;;1.33;;
38513;SDS011;24282;48.400;10.808;2023-09-19T04:27:34;1.58;;;1.10;;
38513;SDS011;24282;48.400;10.808;2023-09-19T04:30:00;2.42;;;1.23;;
38513;SDS011;24282;48.400;10.808;2023-09-19T04:32:34;3.53;;;2.03;;
38513;SDS011;24282;48.400;10.808;2023-09-19T04:35:01;3.10;;;1.63;;
38513;SDS011;24282;48.400;10.808;2023-09-19T04:37:30;3.42;;;1.60;;
38513;SDS011;24282;48.400;10.808;2023-09-19T04:39:56;3.08;;;1.25;;
38513;SDS011;24282;48.400;10.808;2023-09-19T04:42:22;2.67;;;1.30;;
38513;SDS011;24282;48.400;10.808;2023-09-19T04:44:50;3.05;;;1.38;;
38513;SDS011;24282;48.400;10.808;2023-09-19T04:47:18;3.05;;;1.55;;
38513;SDS011;24282;48.400;10.808;2023-09-19T04:49:44;1.67;;;1.23;;
38513;SDS011;24282;48.400;10.808;2023-09-19T04:52:10;2.80;;;1.17;;
38513;SDS011;24282;48.400;10.808;2023-09-19T04:54:35;3.67;;;1.05;;
38513;SDS011;24282;48.400;10.808;2023-09-19T04:57:01;2.83;;;1.10;;
38513;SDS011;24282;48.400;10.808;2023-09-19T04:59:27;4.10;;;1.25;;
38513;SDS011;24282;48.400;10.808;2023-09-19T05:01:53;2.17;;;1.40;;
38513;SDS011;24282;48.400;10.808;2023-09-19T05:04:19;2.13;;;1.30;;
38513;SDS011;24282;48.400;10.808;2023-09-19T05:06:45;2.38;;;1.48;;
38513;SDS011;24282;48.400;10.808;2023-09-19T05:09:10;2.95;;;1.30;;
38513;SDS011;24282;48.400;10.808;2023-09-19T05:11:36;2.67;;;1.23;;
38513;SDS011;24282;48.400;10.808;2023-09-19T05:14:03;2.13;;;1.30;;
38513;SDS011;24282;48.400;10.808;2023-09-19T05:16:29;2.28;;;1.40;;
38513;SDS011;24282;48.400;10.808;2023-09-19T05:18:57;2.25;;;1.42;;
38513;SDS011;24282;48.400;10.808;2023-09-19T05:21:25;2.38;;;1.48;;
38513;SDS011;24282;48.400;10.808;2023-09-19T05:23:54;3.40;;;2.45;;
38513;SDS011;24282;48.400;10.808;2023-09-19T05:26:20;3.85;;;2.20;;
38513;SDS011;24282;48.400;10.808;2023-09-19T05:28:46;2.45;;;1.48;;
38513;SDS011;24282;48.400;10.808;2023-09-19T05:31:13;3.55;;;1.45;;
38513;SDS011;24282;48.400;10.808;2023-09-19T05:33:40;2.33;;;1.17;;
38513;SDS011;24282;48.400;10.808;2023-09-19T05:36:06;2.67;;;1.25;;
38513;SDS011;24282;48.400;10.808;2023-09-19T05:38:35;3.00;;;1.35;;
38513;SDS011;24282;48.400;10.808;2023-09-19T05:41:00;3.83;;;1.42;;
38513;SDS011;24282;48.400;10.808;2023-09-19T05:43:27;2.17;;;1.00;;
38513;SDS011;24282;48.400;10.808;2023-09-19T05:45:53;2.72;;;1.20;;
38513;SDS011;24282;48.400;10.808;2023-09-19T05:48:21;2.03;;;1.00;;
38513;SDS011;24282;48.400;10.808;2023-09-19T05:50:47;2.67;;;1.05;;
38513;SDS011;24282;48.400;10.808;2023-09-19T05:53:14;2.58;;;1.30;;
38513;SDS011;24282;48.400;10.808;2023-09-19T05:55:40;3.88;;;1.23;;
38513;SDS011;24282;48.400;10.808;2023-09-19T05:58:06;1.75;;;1.38;;
38513;SDS011;24282;48.400;10.808;2023-09-19T06:00:32;1.63;;;1.13;;
38513;SDS011;24282;48.400;10.808;2023-09-19T06:02:58;1.75;;;0.95;;
38513;SDS011;24282;48.400;10.808;2023-09-19T06:05:25;2.78;;;1.15;;
38513;SDS011;24282;48.400;10.808;2023-09-19T06:07:52;1.52;;;0.90;;
38513;SDS011;24282;48.400;10.808;2023-09-19T06:10:18;1.85;;;1.25;;
38513;SDS011;24282;48.400;10.808;2023-09-19T06:12:46;1.65;;;1.10;;
38513;SDS011;24282;48.400;10.808;2023-09-19T06:15:12;2.05;;;1.17;;
38513;SDS011;24282;48.400;10.808;2023-09-19T06:17:50;2.00;;;1.08;;
38513;SDS011;24282;48.400;10.808;2023-09-19T06:20:20;2.22;;;1.20;;
38513;SDS011;24282;48.400;10.808;2023-09-19T06:22:47;2.88;;;1.23;;
38513;SDS011;24282;48.400;10.808;2023-09-19T06:25:14;2.17;;;1.08;;
38513;SDS011;24282;48.400;10.808;2023-09-19T06:27:44;2.00;;;1.05;;
38513;SDS011;24282;48.400;10.808;2023-09-19T06:30:11;2.40;;;1.00;;
38513;SDS011;24282;48.400;10.808;2023-09-19T06:32:38;2.00;;;1.10;;
38513;SDS011;24282;48.400;10.808;2023-09-19T06:35:05;1.98;;;1.10;;
38513;SDS011;24282;48.400;10.808;2023-09-19T06:37:36;3.58;;;1.33;;
38513;SDS011;24282;48.400;10.808;2023-09-19T06:40:09;2.08;;;1.20;;
38513;SDS011;24282;48.400;10.808;2023-09-19T06:42:46;2.50;;;0.73;;
38513;SDS011;24282;48.400;10.808;2023-09-19T06:45:14;1.80;;;0.90;;
38513;SDS011;24282;48.400;10.808;2023-09-19T06:47:46;4.78;;;2.50;;
38513;SDS011;24282;48.400;10.808;2023-09-19T06:50:16;6.30;;;3.65;;
38513;SDS011;24282;48.400;10.808;2023-09-19T06:52:44;5.60;;;2.78;;
38513;SDS011;24282;48.400;10.808;2023-09-19T06:55:11;2.42;;;1.73;;
38513;SDS011;24282;48.400;10.808;2023-09-19T06:57:38;5.10;;;1.00;;
38513;SDS011;24282;48.400;10.808;2023-09-19T07:00:09;2.25;;;1.20;;
38513;SDS011;24282;48.400;10.808;2023-09-19T07:02:56;2.70;;;0.80;;
38513;SDS011;24282;48.400;10.808;2023-09-19T07:05:35;1.88;;;0.93;;
38513;SDS011;24282;48.400;10.808;2023-09-19T07:08:03;2.40;;;1.20;;
38513;SDS011;24282;48.400;10.808;2023-09-19T07:10:29;2.10;;;1.10;;
38513;SDS011;24282;48.400;10.808;2023-09-19T07:15:29;2.10;;;1.48;;
38513;SDS011;24282;48.400;10.808;2023-09-19T07:17:58;1.58;;;0.95;;
38513;SDS011;24282;48.400;10.808;2023-09-19T07:20:26;2.03;;;0.90;;
38513;SDS011;24282;48.400;10.808;2023-09-19T07:22:52;1.95;;;0.95;;
38513;SDS011;24282;48.400;10.808;2023-09-19T07:25:20;1.70;;;0.90;;
38513;SDS011;24282;48.400;10.808;2023-09-19T07:27:46;2.45;;;1.17;;
38513;SDS011;24282;48.400;10.808;2023-09-19T07:30:12;2.03;;;1.05;;
38513;SDS011;24282;48.400;10.808;2023-09-19T07:32:38;4.38;;;1.67;;
38513;SDS011;24282;48.400;10.808;2023-09-19T07:35:05;2.45;;;1.13;;
38513;SDS011;24282;48.400;10.808;2023-09-19T07:37:32;2.33;;;0.90;;
38513;SDS011;24282;48.400;10.808;2023-09-19T07:39:58;1.70;;;0.82;;
38513;SDS011;24282;48.400;10.808;2023-09-19T07:42:37;2.08;;;1.10;;
38513;SDS011;24282;48.400;10.808;2023-09-19T07:45:06;2.05;;;0.88;;
38513;SDS011;24282;48.400;10.808;2023-09-19T07:47:33;2.75;;;0.95;;
38513;SDS011;24282;48.400;10.808;2023-09-19T07:49:59;2.97;;;1.20;;
38513;SDS011;24282;48.400;10.808;2023-09-19T07:52:28;4.35;;;1.40;;
38513;SDS011;24282;48.400;10.808;2023-09-19T07:54:54;4.00;;;1.00;;
38513;SDS011;24282;48.400;10.808;2023-09-19T07:57:20;1.73;;;0.82;;
38513;SDS011;24282;48.400;10.808;2023-09-19T07:59:45;3.83;;;0.93;;
38513;SDS011;24282;48.400;10.808;2023-09-19T08:02:11;1.70;;;0.90;;
38513;SDS011;24282;48.400;10.808;2023-09-19T08:04:43;3.42;;;1.17;;
38513;SDS011;24282;48.400;10.808;2023-09-19T08:07:11;3.38;;;1.38;;
38513;SDS011;24282;48.400;10.808;2023-09-19T08:09:38;1.88;;;1.00;;
38513;SDS011;24282;48.400;10.808;2023-09-19T08:12:05;2.17;;;1.00;;
38513;SDS011;24282;48.400;10.808;2023-09-19T08:14:33;3.03;;;1.30;;
38513;SDS011;24282;48.400;10.808;2023-09-19T08:16:59;1.83;;;0.90;;
38513;SDS011;24282;48.400;10.808;2023-09-19T08:19:26;2.03;;;0.70;;
38513;SDS011;24282;48.400;10.808;2023-09-19T08:21:56;2.20;;;1.05;;
38513;SDS011;24282;48.400;10.808;2023-09-19T08:24:24;3.50;;;1.20;;
38513;SDS011;24282;48.400;10.808;2023-09-19T08:26:56;1.00;;;0.80;;
38513;SDS011;24282;48.400;10.808;2023-09-19T08:29:23;3.00;;;0.90;;
38513;SDS011;24282;48.400;10.808;2023-09-19T08:31:56;1.33;;;0.70;;
38513;SDS011;24282;48.400;10.808;2023-09-19T08:34:23;2.00;;;1.33;;
38513;SDS011;24282;48.400;10.808;2023-09-19T08:36:52;1.77;;;1.00;;
38513;SDS011;24282;48.400;10.808;2023-09-19T08:39:22;3.45;;;1.50;;
38513;SDS011;24282;48.400;10.808;2023-09-19T08:41:48;2.00;;;0.90;;
38513;SDS011;24282;48.400;10.808;2023-09-19T08:44:14;1.73;;;0.65;;
38513;SDS011;24282;48.400;10.808;2023-09-19T08:46:41;2.88;;;0.80;;
38513;SDS011;24282;48.400;10.808;2023-09-19T08:49:13;1.50;;;0.90;;
38513;SDS011;24282;48.400;10.808;2023-09-19T08:52:46;1.77;;;0.80;;
38513;SDS011;24282;48.400;10.808;2023-09-19T08:54:54;1.63;;;0.80;;
38513;SDS011;24282;48.400;10.808;2023-09-19T08:57:28;3.17;;;0.70;;
38513;SDS011;24282;48.400;10.808;2023-09-19T08:59:58;1.40;;;0.70;;
38513;SDS011;24282;48.400;10.808;2023-09-19T09:02:25;2.53;;;0.80;;
38513;SDS011;24282;48.400;10.808;2023-09-19T09:04:52;2.67;;;0.60;;
38513;SDS011;24282;48.400;10.808;2023-09-19T09:07:20;1.67;;;0.90;;
38513;SDS011;24282;48.400;10.808;2023-09-19T09:09:46;2.33;;;0.82;;
38513;SDS011;24282;48.400;10.808;2023-09-19T09:12:14;2.72;;;0.90;;
38513;SDS011;24282;48.400;10.808;2023-09-19T09:14:40;1.85;;;0.82;;
38513;SDS011;24282;48.400;10.808;2023-09-19T09:17:10;1.40;;;0.80;;
38513;SDS011;24282;48.400;10.808;2023-09-19T09:19:37;1.63;;;0.90;;
38513;SDS011;24282;48.400;10.808;2023-09-19T09:22:09;1.40;;;0.75;;
38513;SDS011;24282;48.400;10.808;2023-09-19T09:24:36;1.45;;;0.80;;
38513;SDS011;24282;48.400;10.808;2023-09-19T09:27:05;1.60;;;0.90;;
38513;SDS011;24282;48.400;10.808;2023-09-19T09:29:42;1.67;;;0.70;;
38513;SDS011;24282;48.400;10.808;2023-09-19T09:32:27;2.45;;;0.80;;
38513;SDS011;24282;48.400;10.808;2023-09-19T09:34:59;0.98;;;0.75;;
38513;SDS011;24282;48.400;10.808;2023-09-19T09:37:26;2.10;;;1.00;;
38513;SDS011;24282;48.400;10.808;2023-09-19T09:39:56;1.55;;;0.70;;
38513;SDS011;24282;48.400;10.808;2023-09-19T09:42:44;1.83;;;0.88;;
38513;SDS011;24282;48.400;10.808;2023-09-19T09:47:59;1.45;;;0.90;;
38513;SDS011;24282;48.400;10.808;2023-09-19T09:50:35;1.30;;;0.73;;
38513;SDS011;24282;48.400;10.808;2023-09-19T09:53:20;0.60;;;0.55;;
38513;SDS011;24282;48.400;10.808;2023-09-19T09:58:53;1.75;;;0.68;;
38513;SDS011;24282;48.400;10.808;2023-09-19T10:01:20;1.75;;;1.02;;
38513;SDS011;24282;48.400;10.808;2023-09-19T10:03:52;1.35;;;0.80;;
38513;SDS011;24282;48.400;10.808;2023-09-19T10:06:22;3.10;;;0.65;;
38513;SDS011;24282;48.400;10.808;2023-09-19T10:11:35;1.52;;;0.70;;
38513;SDS011;24282;48.400;10.808;2023-09-19T10:14:12;1.52;;;0.60;;
38513;SDS011;24282;48.400;10.808;2023-09-19T10:16:48;0.98;;;0.73;;
38513;SDS011;24282;48.400;10.808;2023-09-19T10:19:15;0.98;;;0.65;;
38513;SDS011;24282;48.400;10.808;2023-09-19T10:21:55;2.25;;;0.98;;
38513;SDS011;24282;48.400;10.808;2023-09-19T10:24:22;1.45;;;0.70;;
38513;SDS011;24282;48.400;10.808;2023-09-19T10:26:51;1.95;;;0.90;;
38513;SDS011;24282;48.400;10.808;2023-09-19T10:29:19;1.08;;;0.70;;
38513;SDS011;24282;48.400;10.808;2023-09-19T10:31:47;3.25;;;1.10;;
38513;SDS011;24282;48.400;10.808;2023-09-19T10:34:16;1.92;;;1.13;;
38513;SDS011;24282;48.400;10.808;2023-09-19T10:36:46;2.00;;;1.00;;
38513;SDS011;24282;48.400;10.808;2023-09-19T10:39:15;2.88;;;0.90;;
38513;SDS011;24282;48.400;10.808;2023-09-19T10:41:47;1.80;;;0.70;;
38513;SDS011;24282;48.400;10.808;2023-09-19T10:44:21;0.80;;;0.57;;
38513;SDS011;24282;48.400;10.808;2023-09-19T10:46:50;3.80;;;0.98;;
38513;SDS011;24282;48.400;10.808;2023-09-19T10:49:18;0.98;;;0.68;;
38513;SDS011;24282;48.400;10.808;2023-09-19T10:51:44;1.63;;;0.98;;
38513;SDS011;24282;48.400;10.808;2023-09-19T10:54:15;1.45;;;0.90;;
38513;SDS011;24282;48.400;10.808;2023-09-19T10:56:44;2.88;;;0.82;;
38513;SDS011;24282;48.400;10.808;2023-09-19T10:59:15;0.73;;;0.50;;
38513;SDS011;24282;48.400;10.808;2023-09-19T11:01:50;0.98;;;0.60;;
38513;SDS011;24282;48.400;10.808;2023-09-19T11:04:35;1.55;;;0.77;;
38513;SDS011;24282;48.400;10.808;2023-09-19T11:09:43;0.80;;;0.65;;
38513;SDS011;24282;48.400;10.808;2023-09-19T11:15:10;1.50;;;0.90;;
38513;SDS011;24282;48.400;10.808;2023-09-19T11:24:27;1.42;;;0.75;;
38513;SDS011;24282;48.400;10.808;2023-09-19T11:26:50;1.17;;;0.82;;
38513;SDS011;24282;48.400;10.808;2023-09-19T11:29:26;1.92;;;0.70;;
38513;SDS011;24282;48.400;10.808;2023-09-19T11:31:57;0.85;;;0.68;;
38513;SDS011;24282;48.400;10.808;2023-09-19T11:39:40;1.30;;;0.75;;
38513;SDS011;24282;48.400;10.808;2023-09-19T11:42:44;1.73;;;0.90;;
38513;SDS011;24282;48.400;10.808;2023-09-19T11:48:12;1.63;;;0.88;;
38513;SDS011;24282;48.400;10.808;2023-09-19T11:50:44;2.08;;;1.08;;
38513;SDS011;24282;48.400;10.808;2023-09-19T11:53:12;0.95;;;0.60;;
38513;SDS011;24282;48.400;10.808;2023-09-19T11:55:42;1.75;;;0.80;;
38513;SDS011;24282;48.400;10.808;2023-09-19T11:58:09;1.10;;;0.50;;
38513;SDS011;24282;48.400;10.808;2023-09-19T12:00:35;1.27;;;0.70;;
38513;SDS011;24282;48.400;10.808;2023-09-19T12:03:06;0.95;;;0.63;;
38513;SDS011;24282;48.400;10.808;2023-09-19T12:05:34;1.17;;;0.60;;
38513;SDS011;24282;48.400;10.808;2023-09-19T12:08:02;2.38;;;0.77;;
38513;SDS011;24282;48.400;10.808;2023-09-19T12:10:43;1.10;;;0.70;;
38513;SDS011;24282;48.400;10.808;2023-09-19T12:13:19;1.30;;;0.70;;
38513;SDS011;24282;48.400;10.808;2023-09-19T12:15:46;1.40;;;0.70;;
38513;SDS011;24282;48.400;10.808;2023-09-19T12:18:31;1.48;;;0.77;;
38513;SDS011;24282;48.400;10.808;2023-09-19T12:20:58;0.82;;;0.68;;
38513;SDS011;24282;48.400;10.808;2023-09-19T12:23:25;0.85;;;0.60;;
38513;SDS011;24282;48.400;10.808;2023-09-19T12:25:51;2.25;;;0.80;;
38513;SDS011;24282;48.400;10.808;2023-09-19T12:28:19;1.85;;;0.82;;
38513;SDS011;24282;48.400;10.808;2023-09-19T12:30:48;1.27;;;0.60;;
38513;SDS011;24282;48.400;10.808;2023-09-19T12:33:23;2.47;;;0.68;;
38513;SDS011;24282;48.400;10.808;2023-09-19T12:35:51;4.88;;;0.85;;
38513;SDS011;24282;48.400;10.808;2023-09-19T12:38:27;1.30;;;0.63;;
38513;SDS011;24282;48.400;10.808;2023-09-19T12:40:56;1.65;;;1.00;;
38513;SDS011;24282;48.400;10.808;2023-09-19T12:43:25;2.27;;;0.87;;
38513;SDS011;24282;48.400;10.808;2023-09-19T12:45:53;1.00;;;0.68;;
38513;SDS011;24282;48.400;10.808;2023-09-19T12:48:22;2.22;;;1.35;;
38513;SDS011;24282;48.400;10.808;2023-09-19T12:51:06;3.08;;;1.25;;
38513;SDS011;24282;48.400;10.808;2023-09-19T12:53:33;1.55;;;0.70;;
38513;SDS011;24282;48.400;10.808;2023-09-19T12:56:05;1.17;;;0.73;;
38513;SDS011;24282;48.400;10.808;2023-09-19T12:58:33;1.10;;;0.55;;
38513;SDS011;24282;48.400;10.808;2023-09-19T13:01:00;1.27;;;0.68;;
38513;SDS011;24282;48.400;10.808;2023-09-19T13:03:30;1.98;;;0.60;;
38513;SDS011;24282;48.400;10.808;2023-09-19T13:06:03;1.05;;;0.70;;
38513;SDS011;24282;48.400;10.808;2023-09-19T13:11:12;2.20;;;0.85;;
38513;SDS011;24282;48.400;10.808;2023-09-19T13:13:46;1.35;;;0.80;;
38513;SDS011;24282;48.400;10.808;2023-09-19T13:16:19;1.92;;;0.90;;
38513;SDS011;24282;48.400;10.808;2023-09-19T13:18:51;1.75;;;0.90;;
38513;SDS011;24282;48.400;10.808;2023-09-19T13:24:22;1.70;;;0.80;;
38513;SDS011;24282;48.400;10.808;2023-09-19T13:26:52;1.40;;;0.70;;
38513;SDS011;24282;48.400;10.808;2023-09-19T13:29:22;0.82;;;0.55;;
38513;SDS011;24282;48.400;10.808;2023-09-19T13:31:48;1.15;;;0.68;;
38513;SDS011;24282;48.400;10.808;2023-09-19T13:34:16;1.83;;;0.90;;
38513;SDS011;24282;48.400;10.808;2023-09-19T13:36:43;1.23;;;0.68;;
38513;SDS011;24282;48.400;10.808;2023-09-19T13:39:09;1.75;;;0.80;;
38513;SDS011;24282;48.400;10.808;2023-09-19T13:41:35;1.05;;;0.63;;
38513;SDS011;24282;48.400;10.808;2023-09-19T13:44:04;0.95;;;0.60;;
38513;SDS011;24282;48.400;10.808;2023-09-19T13:46:30;2.22;;;1.02;;
38513;SDS011;24282;48.400;10.808;2023-09-19T13:49:00;1.83;;;0.70;;
38513;SDS011;24282;48.400;10.808;2023-09-19T13:51:28;2.85;;;0.70;;
38513;SDS011;24282;48.400;10.808;2023-09-19T13:53:56;1.48;;;0.82;;
38513;SDS011;24282;48.400;10.808;2023-09-19T13:56:21;2.30;;;0.90;;
38513;SDS011;24282;48.400;10.808;2023-09-19T13:58:47;2.08;;;0.73;;
38513;SDS011;24282;48.400;10.808;2023-09-19T14:01:13;1.92;;;0.80;;
38513;SDS011;24282;48.400;10.808;2023-09-19T14:03:39;1.77;;;0.80;;
38513;SDS011;24282;48.400;10.808;2023-09-19T14:06:06;2.25;;;0.80;;
38513;SDS011;24282;48.400;10.808;2023-09-19T14:08:32;1.65;;;0.90;;
38513;SDS011;24282;48.400;10.808;2023-09-19T14:10:59;2.40;;;1.02;;
38513;SDS011;24282;48.400;10.808;2023-09-19T14:13:30;1.33;;;0.90;;
38513;SDS011;24282;48.400;10.808;2023-09-19T14:15:56;1.70;;;0.80;;
38513;SDS011;24282;48.400;10.808;2023-09-19T14:18:22;1.60;;;0.80;;
38513;SDS011;24282;48.400;10.808;2023-09-19T14:20:47;2.00;;;0.88;;
38513;SDS011;24282;48.400;10.808;2023-09-19T14:23:13;2.03;;;0.80;;
38513;SDS011;24282;48.400;10.808;2023-09-19T14:25:39;3.67;;;0.82;;
38513;SDS011;24282;48.400;10.808;2023-09-19T14:28:05;1.05;;;0.75;;
38513;SDS011;24282;48.400;10.808;2023-09-19T14:30:33;1.10;;;0.70;;
38513;SDS011;24282;48.400;10.808;2023-09-19T14:32:58;1.45;;;0.70;;
38513;SDS011;24282;48.400;10.808;2023-09-19T14:35:24;1.90;;;0.80;;
38513;SDS011;24282;48.400;10.808;2023-09-19T14:37:50;1.30;;;0.90;;
38513;SDS011;24282;48.400;10.808;2023-09-19T14:40:16;3.45;;;0.80;;
38513;SDS011;24282;48.400;10.808;2023-09-19T14:42:43;1.23;;;0.90;;
38513;SDS011;24282;48.400;10.808;2023-09-19T14:45:10;0.85;;;0.60;;
38513;SDS011;24282;48.400;10.808;2023-09-19T14:47:37;1.77;;;0.75;;
38513;SDS011;24282;48.400;10.808;2023-09-19T14:50:03;4.88;;;0.63;;
38513;SDS011;24282;48.400;10.808;2023-09-19T14:52:31;1.33;;;0.65;;
38513;SDS011;24282;48.400;10.808;2023-09-19T14:54:59;1.42;;;0.80;;
38513;SDS011;24282;48.400;10.808;2023-09-19T14:57:25;1.15;;;0.70;;
38513;SDS011;24282;48.400;10.808;2023-09-19T14:59:51;3.15;;;0.93;;
38513;SDS011;24282;48.400;10.808;2023-09-19T15:02:17;1.95;;;1.00;;
38513;SDS011;24282;48.400;10.808;2023-09-19T15:04:43;1.85;;;0.90;;
38513;SDS011;24282;48.400;10.808;2023-09-19T15:07:09;1.00;;;0.80;;
38513;SDS011;24282;48.400;10.808;2023-09-19T15:09:35;2.45;;;0.73;;
38513;SDS011;24282;48.400;10.808;2023-09-19T15:12:01;1.92;;;0.80;;
38513;SDS011;24282;48.400;10.808;2023-09-19T15:14:27;1.45;;;0.70;;
38513;SDS011;24282;48.400;10.808;2023-09-19T15:16:54;1.48;;;0.60;;
38513;SDS011;24282;48.400;10.808;2023-09-19T15:19:20;1.40;;;0.70;;
38513;SDS011;24282;48.400;10.808;2023-09-19T15:21:47;1.83;;;0.90;;
38513;SDS011;24282;48.400;10.808;2023-09-19T15:24:13;1.13;;;0.68;;
38513;SDS011;24282;48.400;10.808;2023-09-19T15:26:40;1.55;;;0.70;;
38513;SDS011;24282;48.400;10.808;2023-09-19T15:29:06;1.95;;;0.90;;
38513;SDS011;24282;48.400;10.808;2023-09-19T15:31:32;2.10;;;0.98;;
38513;SDS011;24282;48.400;10.808;2023-09-19T15:33:58;1.90;;;0.90;;
38513;SDS011;24282;48.400;10.808;2023-09-19T15:36:24;2.25;;;1.17;;
38513;SDS011;24282;48.400;10.808;2023-09-19T15:41:19;0.80;;;0.60;;
38513;SDS011;24282;48.400;10.808;2023-09-19T15:43:48;1.17;;;0.70;;
38513;SDS011;24282;48.400;10.808;2023-09-19T15:46:14;1.58;;;0.80;;
38513;SDS011;24282;48.400;10.808;2023-09-19T15:48:40;1.30;;;0.85;;